Terminal Aerodrome Forecast
Issued by NWS

Home | Current Version | Previous Version | Text Only | Print | Product List | Glossary On
Versions: 1 2 3 4 5 6 7 8 9 10 11 12 13 14 15 16 17 18 19
433
FTPA31 PHFO 162332
TAFSTU
TAF
NSTU 162332Z 1700/1724 01010KT P6SM FEW020 SCT100 BKN180
     FM170600 03006KT P6SM VCSH SCT015 BKN040=

USA.gov is the U.S. government's official web portal to all federal, state and local government web resources and services.